Little Orleans, Maryland
Current Conditions -  °F | °C
As of 12:58 PM on Saturday 22 Nov 2014 (Local Time) from KCBE Reporting Station
Broken Clouds Broken Clouds  
Wind Chill: 36°   Ceiling: 6000
Heat Index: 36°   Visibility: 10mi
Dew Point: 16°   Wind: 3mph
Humidity: 44%   Direction: 320°NW
Pressure: 30.35"   Gusts: NA
Location:  39.63°N, 78.39°W
Report Text: KCBE 221758Z AUTO 32003KT 10SM BKN060 BKN070 02/M09 A3035 RMK AO1
Loading
Personal Weather Stations






























Interactive Weather Map New forecast layout! Learn more

10-Day Weather Forecast

Advertisements
Track Severe Weather on mobile